Hakon Mosby — LJIT — position and weather

sailwx.info

Track history (hours):
 
Tides and Currents Weather Stations Pressure Air Temp Water Temp Dewpoint Dewpoint Depression Visibility Wind Speed Wind Dir Waves Ship Positions

Oceanographic research ship Hakon Mosby (Norway)

Detailed information on ship capabilities available from University of Delaware's Ocean Information Center and ARCUS's ALIAS (Arctic Logistics Information and Support) project.

Last reported at 2015-Mar-30 04:00 UTC. Time now 2015-Apr-02 09:41 UTC.
Position N 60°18' E 005°18'.

Type: Dredging. MMSI: 258244000.

Wind from 130

Barometer 983.4 mb
Air temperature 2.7 ° C
Dewpoint -15.0 ° C
Water temperature 6.2 ° C

Date/timePositionNaut miles runAvg speedWind from/ knotsBaromVisibWave heightAir tempDewpointWater temp
2015-Mar-30 04:00N 60°18' E 005°18'0 0.0 130 983.4 2.7-15.0 6.2
2015-Mar-30 03:00N 60°18' E 005°18'0 0.0 150 / 2983.0 2.5 0.3 6.3
2015-Mar-30 02:00N 60°18' E 005°18'0 0.0 180 / 4983.0 2.8 0.5 6.3
2015-Mar-30 01:00N 60°18' E 005°18'0 0.0 190 / 2982.9 3.2 0.7 6.3
2015-Mar-30 00:00N 60°18' E 005°18'0 0.0 210 / 2982.8 3.5 0.7 6.5
2015-Mar-29 23:00N 60°18' E 005°18'0 0.0 270 / 2982.6 4.3 1.8 6.3
2015-Mar-29 21:00N 60°18' E 005°18'0 0.0 050 982.9 4.6 1.3 6.3
2015-Mar-29 20:00N 60°18' E 005°18'0 0.0 320 / 2983.0 3.0-0.7 6.5
2015-Mar-29 19:00N 60°18' E 005°18'0 0.0 310 / 4983.1 5.2 1.3 6.5
2015-Mar-29 18:00N 60°18' E 005°18'0 0.0 320 / 4983.0 5.5 1.0 6.4
2015-Mar-29 17:00N 60°18' E 005°18'0 0.0 340 / 4983.1 5.9 0.9 6.5
2015-Mar-29 15:00N 60°18' E 005°18'0 0.0 340 / 2983.8 5.6 1.2 6.4
2015-Mar-29 14:00N 60°18' E 005°18'7 3.3 280 / 6984.5 6.1 1.2 6.5
2015-Mar-29 12:00N 60°24' E 005°12'1110.7 260 / 14985.2 6.4 0.9 6.1
2015-Mar-29 11:00N 60°30' E 004°54'1212.4 270 / 12985.7 5.3 0.7 6.1
2015-Mar-29 10:00N 60°42' E 004°48'3010.0 230 / 16985.8 4.5 1.1 6.0
2015-Mar-29 07:00N 61°12' E 004°42'1212.3 250 / 17985.1 5.8 2.1 5.5
2015-Mar-29 06:00N 61°24' E 004°48'7 6.7 240 / 17984.4 5.9 2.2 5.4
2015-Mar-29 05:00N 61°30' E 004°54'3110.2 220 / 21984.3 5.1 2.2 5.1
2015-Mar-29 02:00N 62°00' E 005°06'1212.0 200 / 27981.1 5.7 2.3 5.4
2015-Mar-29 01:00N 62°12' E 005°06'8 8.4 180 / 27978.4 7.3 0.6 5.5
2015-Mar-29 00:00N 62°12' E 005°24'3712.2 170 / 14979.1 8.8-0.5 5.3
2015-Mar-28 21:00N 62°36' E 006°24'1313.2 140 / 12984.0 6.0-1.0 5.4
2015-Mar-28 20:00N 62°48' E 006°36'3310.9 200 / 12985.9 4.9-3.7 5.5
2015-Mar-28 17:00N 63°06' E 007°36'1212.4 130 / 16992.3 8.1-6.0 5.6
2015-Mar-28 16:00N 63°12' E 008°00'2512.3 140 / 10994.9 8.6-7.7 5.5
2015-Mar-28 14:00N 63°24' E 008°48'1812.3 150 / 10999.5 9.7-6.1 5.6
2015-Mar-28 12:32N 63°37' E 009°16'11 7.4
2015-Mar-28 11:00N 63°48' E 009°24'2612.9 180 / 121004.0 6.8-2.6 5.9
2015-Mar-28 09:00N 64°06' E 010°06'1313.1 230 / 141005.5 6.1-2.2 5.1
2015-Mar-28 08:00N 64°18' E 010°18'7 6.5 230 / 171005.7 5.4-1.3 5.0
2015-Mar-28 07:00N 64°24' E 010°24'3313.6 220 / 251005.2 6.1-1.6 5.0
2015-Mar-28 04:33N 64°50' E 011°11'1211.6
2015-Mar-28 03:33N 64°58' E 011°32'1311.8
2015-Mar-28 02:27N 65°08' E 011°50'4 8.8
2015-Mar-28 02:00N 65°12' E 011°54'6 6.0 200 / 211005.8 4.0 0.6 4.6
2015-Mar-28 01:00N 65°18' E 011°54'3812.7 190 / 211006.3 3.7 1.0 4.1
2015-Mar-27 22:00N 65°54' E 012°24'8 7.7 160 / 141006.2 2.7-2.1 4.0
2015-Mar-27 21:00N 66°00' E 012°36'1414.0 130 / 161006.5 1.5-3.6 4.2
2015-Mar-27 20:00N 66°12' E 012°54'1021.7 150 / 141007.1 1.8-3.3 4.5
2015-Mar-27 19:33N 66°22' E 012°58'3 5.0
2015-Mar-27 19:00N 66°24' E 012°54'3213.0 150 / 81007.0 1.8-3.2 4.1
2015-Mar-27 16:32N 66°54' E 013°25'1111.2
2015-Mar-27 15:33N 67°01' E 013°45'1211.7
2015-Mar-27 14:33N 67°11' E 014°04'4 6.3
2015-Mar-27 14:00N 67°12' E 014°12'714.2 110 / 161007.7 3.2-5.5 3.7
2015-Mar-27 13:32N 67°17' E 014°22'610.4
2015-Mar-27 13:00N 67°12' E 014°18'611.9 120 / 141008.2 3.0-6.9 4.0
2015-Mar-27 12:32N 67°17' E 014°22'0 0.0
2015-Mar-27 11:31N 67°17' E 014°22'610.4
2015-Mar-27 11:00N 67°12' E 014°18'611.9 110 / 171008.6 2.5-7.2 4.0
2015-Mar-27 10:31N 67°17' E 014°22'0 0.0
2015-Mar-27 09:31N 67°17' E 014°22'610.4
2015-Mar-27 09:00N 67°12' E 014°18'611.8 130 / 141008.7 2.3-7.3 3.9
2015-Mar-27 08:31N 67°17' E 014°22'610.4
2015-Mar-27 08:00N 67°12' E 014°18'611.8 130 / 101008.6 2.2-7.3 3.8
2015-Mar-27 07:31N 67°17' E 014°22'0 0.0
2015-Mar-27 06:31N 67°17' E 014°22'610.4
2015-Mar-27 06:00N 67°12' E 014°18'611.8 140 / 121008.6 1.5-7.5 3.7
2015-Mar-27 05:31N 67°17' E 014°22'610.4
2015-Mar-27 05:00N 67°12' E 014°18'611.8 150 / 101009.0 1.6-7.2 3.7
2015-Mar-27 04:31N 67°17' E 014°22'610.5
2015-Mar-27 04:00N 67°12' E 014°18'611.8 160 / 141008.6 0.8-8.1 3.6
2015-Mar-27 03:31N 67°17' E 014°22'610.5
2015-Mar-27 03:00N 67°12' E 014°18'611.8 140 / 171009.2 0.6-6.9 3.6
2015-Mar-27 02:31N 67°17' E 014°22'0 0.0
2015-Mar-27 01:31N 67°17' E 014°22'0 0.0
2015-Mar-27 00:31N 67°17' E 014°22'610.5
2015-Mar-27 00:00N 67°12' E 014°18'611.7 140 / 171011.0 0.8-7.4 3.7
2015-Mar-26 23:31N 67°17' E 014°22'610.5
2015-Mar-26 23:00N 67°12' E 014°18'611.7 120 / 141011.1 0.9-7.2 3.8
2015-Mar-26 22:31N 67°17' E 014°22'610.5
2015-Mar-26 22:00N 67°12' E 014°18'611.7 140 / 161011.3 1.3-8.7 3.8
2015-Mar-26 21:31N 67°17' E 014°22'610.5
2015-Mar-26 21:00N 67°12' E 014°18'611.7 130 / 101011.7 2.7-8.5 3.7
2015-Mar-26 20:31N 67°17' E 014°22'610.5
2015-Mar-26 20:00N 67°12' E 014°18'611.7 140 / 101012.7 2.1-9.5 3.7
2015-Mar-26 19:31N 67°17' E 014°22'610.5
2015-Mar-26 19:00N 67°12' E 014°18'611.7 120 / 191013.0 0.6-10.2 3.6
2015-Mar-26 18:31N 67°17' E 014°22'610.5
2015-Mar-26 18:00N 67°12' E 014°18'611.7 120 / 191013.3 0.9-9.4 3.7
2015-Mar-26 17:31N 67°17' E 014°22'610.6
2015-Mar-26 17:00N 67°12' E 014°18'611.7 120 / 211014.2 0.9-9.8 3.7
2015-Mar-26 16:31N 67°17' E 014°22'610.6
2015-Mar-26 16:00N 67°12' E 014°18'611.7 110 / 191014.2 1.1-10.6 3.7
2015-Mar-26 15:31N 67°17' E 014°22'610.6
2015-Mar-26 15:00N 67°12' E 014°18'611.6 110 / 211014.7 1.5-11.8 3.8
2015-Mar-26 14:31N 67°17' E 014°22'610.6
2015-Mar-26 14:00N 67°12' E 014°18'611.6 110 / 191015.8 1.1-11.9 3.9
2015-Mar-26 13:31N 67°17' E 014°22'610.6
2015-Mar-26 13:00N 67°12' E 014°18'611.6 110 / 171016.2 1.3-12.3 3.8
2015-Mar-26 12:31N 67°17' E 014°22'610.6
2015-Mar-26 12:00N 67°12' E 014°18'611.6 110 / 171017.0 0.8-13.1 3.7
2015-Mar-26 11:31N 67°17' E 014°22'610.6
2015-Mar-26 11:00N 67°12' E 014°18'611.6 110 / 191016.8 1.0-13.4 3.7
2015-Mar-26 10:31N 67°17' E 014°22'610.6
2015-Mar-26 10:00N 67°12' E 014°18'611.6 110 / 191017.2 0.8-13.1 3.8
2015-Mar-26 09:31N 67°17' E 014°22'610.6
2015-Mar-26 09:00N 67°12' E 014°18'611.6 110 / 171017.7 0.6-13.1 3.7
2015-Mar-26 08:31N 67°17' E 014°22'610.6
2015-Mar-26 08:00N 67°12' E 014°18'611.6 100 / 171018.2 -0.0-13.1 3.7
2015-Mar-26 07:31N 67°17' E 014°22'610.6
2015-Mar-26 07:00N 67°12' E 014°18'611.7 110 / 171018.5 -0.8-12.2 3.6
2015-Mar-26 06:31N 67°17' E 014°22'8 8.2
2015-Mar-26 05:33N 67°25' E 014°28'611.1
2015-Mar-26 05:00N 67°30' E 014°18'612.6 140 / 211018.4 0.2-10.9 3.8
2015-Mar-26 04:32N 67°36' E 014°19'3 4.8
2015-Mar-26 04:00N 67°36' E 014°12'1223.3 140 / 191018.6 0.1-11.3 3.6
2015-Mar-26 03:29N 67°47' E 014°20'2 3.2
2015-Mar-26 03:00N 67°48' E 014°24'1515.0 140 / 141019.4 0.7-15.7 3.7
2015-Mar-26 02:00N 68°00' E 014°48'4511.2 150 / 101020.2 0.6-13.0 3.4
2015-Mar-25 22:00N 68°30' E 016°18'2110.5 200 / 121021.2 0.7-4.3 2.8
2015-Mar-25 20:00N 68°48' E 016°48'1514.8 230 / 191019.7 1.2-2.2 3.2
2015-Mar-25 19:00N 69°00' E 017°12'1010.5 260 / 171019.1 2.2-1.7 3.0
2015-Mar-25 18:00N 69°06' E 017°36'29 9.8 300 / 191018.2 3.2-4.1 2.6
2015-Mar-25 15:00N 69°30' E 018°24'1010.3 270 / 141016.1 0.3-2.2 2.6
2015-Mar-25 14:00N 69°36' E 018°48'4 9.9 1015.7 0.6-2.1 2.1
2015-Mar-25 13:33N 69°39' E 018°57'0 0.0
2015-Mar-25 12:31N 69°39' E 018°57'3 5.9
2015-Mar-25 12:00N 69°36' E 018°54'3 7.0 230 / 41014.7 1.5-3.5 2.9
2015-Mar-25 11:34N 69°39' E 018°57'3 5.4
2015-Mar-25 11:00N 69°36' E 018°54'3 6.3 220 / 121014.1 -0.0-2.5 3.0
2015-Mar-25 10:30N 69°39' E 018°57'3 5.9
2015-Mar-25 10:00N 69°36' E 018°54'3 7.0 220 / 121013.7 -0.4-3.0 2.7
2015-Mar-25 09:33N 69°39' E 018°57'3 5.4
2015-Mar-25 09:00N 69°36' E 018°54'3 5.7 220 / 81013.0 -0.0-3.0 2.6
2015-Mar-25 08:27N 69°39' E 018°57'3 6.6
2015-Mar-25 08:00N 69°36' E 018°54'3 4.1 220 / 101012.5 0.2-2.7 2.6
2015-Mar-25 07:15N 69°39' E 018°57'311.5
2015-Mar-25 07:00N 69°36' E 018°54'3 7.0 220 / 101012.0 -1.0-3.1 2.6
2015-Mar-25 06:33N 69°39' E 018°57'3 5.4
2015-Mar-25 06:00N 69°36' E 018°54'3 7.0 220 / 171011.8 -1.8-3.7 2.7
2015-Mar-25 05:33N 69°39' E 018°57'3 5.4
2015-Mar-25 05:00N 69°36' E 018°54'3 7.0 220 / 191012.1 -2.6-4.1 2.5
2015-Mar-25 04:33N 69°39' E 018°57'0 0.0
2015-Mar-25 03:30N 69°39' E 018°57'3 5.9
2015-Mar-25 03:00N 69°36' E 018°54'3 7.0 220 / 161013.2 -2.6-5.6 2.4
2015-Mar-25 02:33N 69°39' E 018°57'3 5.4
2015-Mar-25 02:00N 69°36' E 018°54'3 6.2 210 / 141014.2 -1.4-7.4 2.5
2015-Mar-25 01:30N 69°39' E 018°57'3 6.0
2015-Mar-25 01:00N 69°36' E 018°54'3 6.3 220 / 121015.4 -1.8-8.4 2.7
2015-Mar-25 00:30N 69°39' E 018°57'3 5.9
2015-Mar-25 00:00N 69°36' E 018°54'3 6.2 220 / 121015.7 -1.8-7.6 2.7
2015-Mar-24 23:30N 69°39' E 018°57'3 6.0
2015-Mar-24 23:00N 69°36' E 018°54'3 6.9 220 / 101016.1 -2.0-6.5 2.7
2015-Mar-24 22:33N 69°39' E 018°57'3 5.4
2015-Mar-24 22:00N 69°36' E 018°54'3 6.9 240 / 121016.2 -2.7-5.5 2.8
2015-Mar-24 21:33N 69°39' E 018°57'3 5.4
2015-Mar-24 21:00N 69°36' E 018°54'3 6.2 240 / 61016.0 -1.8-7.0 2.8
2015-Mar-24 20:30N 69°39' E 018°57'0 0.0
2015-Mar-24 19:30N 69°39' E 018°57'0 0.0
2015-Mar-24 18:33N 69°39' E 018°57'0 0.0
2015-Mar-24 17:30N 69°39' E 018°57'0 0.0
2015-Mar-24 16:33N 69°39' E 018°57'3 5.4
2015-Mar-24 16:00N 69°36' E 018°54'3 5.6 280 / 21013.2 -1.5-6.5 2.6
2015-Mar-24 15:27N 69°39' E 018°57'3 6.7
2015-Mar-24 15:00N 69°36' E 018°54'3 4.7 270 / 41012.8 -1.0-8.1 2.6
2015-Mar-24 14:21N 69°39' E 018°57'3 8.5
2015-Mar-24 14:00N 69°36' E 018°54'3 6.9 230 / 61012.2 -0.9-8.8 2.8
2015-Mar-24 13:33N 69°39' E 018°57'3 5.5
2015-Mar-24 13:00N 69°36' E 018°54'3 6.9 220 / 101011.6 -1.1-10.1 2.7
2015-Mar-24 12:33N 69°39' E 018°57'0 0.0
2015-Mar-24 11:33N 69°39' E 018°57'3 5.5
2015-Mar-24 11:00N 69°36' E 018°54'3 6.9 210 / 61010.6 -1.6-11.5 2.8
2015-Mar-24 10:33N 69°39' E 018°57'3 5.5
2015-Mar-24 10:00N 69°36' E 018°54'3 6.2 190 / 41010.2 -1.9-12.2 2.7
2015-Mar-24 09:30N 69°39' E 018°57'3 6.0
2015-Mar-24 09:00N 69°36' E 018°54'3 6.8 100 1008.9 -2.0-12.9 2.7
2015-Mar-24 08:33N 69°39' E 018°57'3 5.5
2015-Mar-24 08:00N 69°36' E 018°54'3 5.6 080 / 41008.0 -3.2-13.6 2.7
2015-Mar-24 07:27N 69°39' E 018°57'3 6.7
2015-Mar-24 07:00N 69°36' E 018°54'3 6.8 060 / 41006.7 -3.6-14.1 2.5
2015-Mar-24 06:33N 69°39' E 018°57'3 5.5
2015-Mar-24 06:00N 69°36' E 018°54'3 4.4 130 / 41005.7 -3.8-12.6 2.6
2015-Mar-24 05:18N 69°39' E 018°57'310.0
2015-Mar-24 05:00N 69°36' E 018°54'3 6.1 110 / 41004.6 -4.5-12.5 2.6
2015-Mar-24 04:30N 69°39' E 018°57'3 6.1
2015-Mar-24 04:00N 69°36' E 018°54'3 6.8 080 / 121002.9 -3.6-11.1 2.5
2015-Mar-24 03:33N 69°39' E 018°57'3 5.5
2015-Mar-24 03:00N 69°36' E 018°54'3 6.1 100 / 41001.3 -5.5-12.9 2.5
2015-Mar-24 02:30N 69°39' E 018°57'3 6.1
2015-Mar-24 02:00N 69°36' E 018°54'3 6.1 090 / 21000.0 -4.3-11.1 2.5
2015-Mar-24 01:30N 69°39' E 018°57'3 6.1
2015-Mar-24 01:00N 69°36' E 018°54'3 6.8 070 / 8998.6 -4.1-10.5 2.5
2015-Mar-24 00:33N 69°39' E 018°57'3 5.5
2015-Mar-24 00:00N 69°36' E 018°54'3 6.8 060 / 12997.0 -3.6-9.3 2.6
2015-Mar-23 23:33N 69°39' E 018°57'3 5.5
2015-Mar-23 23:00N 69°36' E 018°54'3 5.5 060 / 16995.5 -3.7-9.7 2.7
2015-Mar-23 22:27N 69°39' E 018°57'3 6.8
2015-Mar-23 22:00N 69°36' E 018°54'3 5.3 060 / 16994.5 -3.4-9.1 2.8
2015-Mar-23 21:25N 69°39' E 018°57'3 7.2
2015-Mar-23 21:00N 69°36' E 018°54'3 6.4 050 / 16993.6 -3.3-8.7 2.7
2015-Mar-23 20:31N 69°39' E 018°57'3 5.8
2015-Mar-23 20:00N 69°36' E 018°54'3 6.4 060 / 14992.6 -3.0-8.5 2.8
2015-Mar-23 19:31N 69°39' E 018°57'3 5.8
2015-Mar-23 19:00N 69°36' E 018°54'3 4.9 060 / 16991.8 -2.5-7.3 2.8
2015-Mar-23 18:22N 69°39' E 018°57'3 8.2
2015-Mar-23 18:00N 69°36' E 018°54'3 6.4 060 / 16991.0 -1.9-6.2 2.8
2015-Mar-23 17:31N 69°39' E 018°57'3 5.8
2015-Mar-23 17:00N 69°36' E 018°54'3 6.4 030 / 12990.3 -1.6-6.1 2.7
2015-Mar-23 16:31N 69°39' E 018°57'0 0.0
2015-Mar-23 15:33N 69°39' E 018°57'3 5.5
2015-Mar-23 15:00N 69°36' E 018°54'4 4.7 040 / 17989.5 -1.0-3.4 2.7
2015-Mar-23 14:11N 69°39' E 018°58'419.5
2015-Mar-23 14:00N 69°36' E 018°54'4 6.8 040 / 16989.3 -1.1-3.2 2.8
2015-Mar-23 13:26N 69°39' E 018°58'4 8.5
2015-Mar-23 13:00N 69°36' E 018°54'4 8.3 040 / 16988.9 -0.2-2.9 2.8
2015-Mar-23 12:32N 69°39' E 018°58'4 7.0
2015-Mar-23 12:00N 69°36' E 018°54'9 8.7 070 / 12988.9 0.6-2.7 2.5
2015-Mar-23 11:00N 69°42' E 019°12'1212.0 050 / 14989.2 -0.0-2.7 2.8
2015-Mar-23 10:00N 69°48' E 019°42'2512.4 060 / 14989.5 -0.0-3.5 2.9
2015-Mar-23 08:00N 70°12' E 020°00'24 8.0 070 / 14989.5 -0.3-4.3 3.9
2015-Mar-23 05:00N 70°36' E 019°54'6 6.0 090 / 17990.0 -1.0-4.7 5.1
2015-Mar-23 04:00N 70°42' E 019°54'1212.0 080 / 17989.9 -0.7-4.9 5.0
2015-Mar-23 03:00N 70°54' E 019°54'6 6.0 090 / 19990.1 -0.4-5.1 5.1
2015-Mar-23 02:00N 71°00' E 019°54'6 6.3 100 / 17990.7 -0.6-4.9 5.1
2015-Mar-23 01:00N 71°06' E 019°48'6 6.0 090 / 19990.8 -0.5-4.4 5.2
2015-Mar-23 00:00N 71°12' E 019°48'6 6.3 090 / 23991.0 -0.3-4.8 5.3
2015-Mar-22 23:00N 71°18' E 019°42'1212.0 100 / 23991.4 -0.4-4.9 5.5
2015-Mar-22 22:00N 71°30' E 019°42'0 0.0 110 / 25992.0 -0.2-5.3 5.4
2015-Mar-22 21:00N 71°30' E 019°42'1212.0 100 / 21992.1 -0.3-5.2 5.6
2015-Mar-22 20:00N 71°42' E 019°42'6 6.3 110 / 25992.5 -0.7-5.2 5.5
2015-Mar-22 19:00N 71°48' E 019°48'6 6.0 110 / 27993.5 -0.9-6.1 5.4
2015-Mar-22 18:00N 71°54' E 019°48'6 6.3 120 / 29993.6 -0.7-6.1 5.3
2015-Mar-22 17:00N 72°00' E 019°42'2 1.9 120 / 27994.5 -0.0-5.5 5.4
2015-Mar-22 16:00N 72°00' E 019°36'6 6.0 110 / 29994.5 -0.0-5.9 5.3
2015-Mar-22 15:00N 72°06' E 019°36'6 6.0 120 / 29995.2 -0.0-7.4 5.3
2015-Mar-22 14:00N 72°12' E 019°36'1212.1 120 / 29995.8 0.1-6.3 5.5
2015-Mar-22 13:00N 72°24' E 019°30'6 6.0 130 / 29996.8 0.6-8.2 5.1
2015-Mar-22 12:00N 72°30' E 019°30'0 0.0 130 / 25998.0 0.6-7.5 5.4
2015-Mar-22 11:00N 72°30' E 019°30'2 1.8 140 / 27998.6 0.7-8.2 5.0
2015-Mar-22 10:00N 72°30' E 019°24'1212.1 140 / 27998.8 0.5-8.3 5.1
2015-Mar-22 09:00N 72°42' E 019°30'6 3.1 150 / 29999.5 0.2-7.2 4.9
2015-Mar-22 07:00N 72°48' E 019°24'0 0.0 140 / 331000.5 -1.3-3.8 4.6
2015-Mar-22 06:00N 72°48' E 019°24'6 6.3 150 / 351001.3 -1.9-4.2 4.7
2015-Mar-22 05:00N 72°54' E 019°30'6 6.3 160 / 291002.6 -0.6-4.8 4.8
2015-Mar-22 04:00N 73°00' E 019°24'0 0.0 150 / 271004.2 -0.5-7.4 4.8
2015-Mar-22 03:00N 73°00' E 019°24'6 6.0 160 / 271005.1 -0.4-6.6 4.8
2015-Mar-22 02:00N 73°06' E 019°24'6 6.0 170 / 251006.5 -2.0-6.4 4.8
2015-Mar-22 01:00N 73°12' E 019°24'6 6.2 170 / 271008.1 -1.8-6.7 4.7
2015-Mar-22 00:00N 73°18' E 019°18'1212.1 170 / 25 -2.2-7.5 4.8
2015-Mar-21 23:00N 73°30' E 019°12'2 1.7 160 / 251010.2 -2.3-8.2 4.7
2015-Mar-21 22:00N 73°30' E 019°18'0 0.0 160 / 231011.8 -2.7-9.4 4.6
2015-Mar-21 21:00N 73°30' E 019°18'6 6.0 160 / 211012.6 -3.1-10.4 4.6
2015-Mar-21 20:00N 73°36' E 019°18'1212.1 170 / 191014.0 -3.7-10.8 4.8
2015-Mar-21 19:00N 73°48' E 019°12'62 8.8 170 / 171015.1 -4.4-10.4 4.1
2015-Mar-21 12:00N 74°48' E 018°18'1212.1 170 / 61020.2 -8.4-14.2 2.5
2015-Mar-21 11:00N 75°00' E 018°12'6 6.0 180 / 61020.6 -9.5-15.6-2.2
2015-Mar-21 10:00N 75°06' E 018°12'2 1.5 150 / 41020.7 -9.2-16.2-1.0
2015-Mar-21 09:00N 75°06' E 018°18'2 1.5 080 / 21021.5 -9.8-16.0-1.1
2015-Mar-21 08:00N 75°06' E 018°24'2512.6 090 / 41021.5 -16.3-1.7
2015-Mar-21 06:00N 74°42' E 017°54'9 8.7 060 / 101021.3 -9.1-14.7 4.7
2015-Mar-21 05:00N 74°36' E 017°30'1413.6 070 / 121021.7 -8.1-12.6 2.1
2015-Mar-21 04:00N 74°24' E 017°06'1212.1 060 / 161021.5 -7.3-11.8 4.6
2015-Mar-21 03:00N 74°12' E 017°00'6 6.2 040 / 121021.2 -6.4-11.6 4.7
2015-Mar-21 02:00N 74°06' E 016°54'1212.1 040 / 141021.6 -6.2-11.8 5.3
2015-Mar-21 01:00N 73°54' E 016°48'1212.5 050 / 141021.6 -6.3-12.3 4.6
2015-Mar-21 00:00N 73°42' E 016°36'8 7.9 040 / 121022.1 -6.8-12.4 5.3
2015-Mar-20 23:00N 73°36' E 016°18'7 6.9 050 / 121022.2 -6.6-11.3 5.6
2015-Mar-20 22:00N 73°30' E 016°06'1313.1 040 / 121022.7 -6.6-11.7 5.4
2015-Mar-20 21:00N 73°18' E 015°48'7 6.9 040 / 161022.8 -6.3-14.6 5.4
2015-Mar-20 20:00N 73°12' E 015°36'15 7.4 030 / 191022.7 -6.1-13.5 5.6
2015-Mar-20 18:00N 73°00' E 015°06'8 8.0 040 / 211021.7 -5.1-12.0 5.8
2015-Mar-20 17:00N 72°54' E 014°48'1313.1 050 / 191021.7 -5.3-10.5 6.1
2015-Mar-20 16:00N 72°42' E 014°30'7 7.0 070 / 211021.0 -4.6-10.3 6.0
2015-Mar-20 15:00N 72°36' E 014°18'1313.2 050 / 121020.5 -5.0-7.0 5.3
2015-Mar-20 14:00N 72°24' E 014°00'15 7.5 020 / 141020.0 -4.7-8.0 5.1
2015-Mar-20 12:00N 72°12' E 013°30'7 7.0 030 / 251019.6 -3.6-9.1 5.6
2015-Mar-20 11:00N 72°06' E 013°18'6 5.5 020 / 171020.2 -4.0-7.3 5.4
2015-Mar-20 10:00N 72°06' E 013°00'1312.6 050 / 171020.5 -3.2-9.4 5.6
2015-Mar-20 09:00N 71°54' E 012°48'7 7.1 030 / 121020.7 -3.6-8.9 5.4
2015-Mar-20 08:00N 71°48' E 012°36'8 8.2 350 / 141020.8 -4.2-8.4 4.1
2015-Mar-20 07:00N 71°42' E 012°18'7 7.1 040 / 101020.9 -3.8-8.2 4.5
2015-Mar-20 06:00N 71°36' E 012°06'8 8.3 040 / 211020.5 -3.2-8.2 4.5
2015-Mar-20 05:00N 71°30' E 011°48'8 8.3 030 / 231020.6 -3.7-7.4 4.3
2015-Mar-20 04:00N 71°24' E 011°30'   340 / 141021.0 -3.2-7.6 5.6
Track history (hours):
 
Tides and Currents Weather Stations Pressure Air Temp Water Temp Dewpoint Dewpoint Depression Visibility Wind Speed Wind Dir Waves Ship Positions

Oceanographic research ship Hakon Mosby (Norway)

Detailed information on ship capabilities available from University of Delaware's Ocean Information Center and ARCUS's ALIAS (Arctic Logistics Information and Support) project.

Last reported at 2015-Mar-30 04:00 UTC. Time now 2015-Apr-02 09:41 UTC.
Position N 60°18' E 005°18'.

Type: Dredging. MMSI: 258244000.

Wind from 130

Barometer 983.4 mb
Air temperature 2.7 ° C
Dewpoint -15.0 ° C
Water temperature 6.2 ° C

Date/timePositionNaut miles runAvg speedWind from/ knotsBaromVisibWave heightAir tempDewpointWater temp
2015-Mar-30 04:00N 60°18' E 005°18'0 0.0 130 983.4 2.7-15.0 6.2
2015-Mar-30 03:00N 60°18' E 005°18'0 0.0 150 / 2983.0 2.5 0.3 6.3
2015-Mar-30 02:00N 60°18' E 005°18'0 0.0 180 / 4983.0 2.8 0.5 6.3
2015-Mar-30 01:00N 60°18' E 005°18'0 0.0 190 / 2982.9 3.2 0.7 6.3
2015-Mar-30 00:00N 60°18' E 005°18'0 0.0 210 / 2982.8 3.5 0.7 6.5
2015-Mar-29 23:00N 60°18' E 005°18'0 0.0 270 / 2982.6 4.3 1.8 6.3
2015-Mar-29 21:00N 60°18' E 005°18'0 0.0 050 982.9 4.6 1.3 6.3
2015-Mar-29 20:00N 60°18' E 005°18'0 0.0 320 / 2983.0 3.0-0.7 6.5
2015-Mar-29 19:00N 60°18' E 005°18'0 0.0 310 / 4983.1 5.2 1.3 6.5
2015-Mar-29 18:00N 60°18' E 005°18'0 0.0 320 / 4983.0 5.5 1.0 6.4
2015-Mar-29 17:00N 60°18' E 005°18'0 0.0 340 / 4983.1 5.9 0.9 6.5
2015-Mar-29 15:00N 60°18' E 005°18'0 0.0 340 / 2983.8 5.6 1.2 6.4
2015-Mar-29 14:00N 60°18' E 005°18'7 3.3 280 / 6984.5 6.1 1.2 6.5
2015-Mar-29 12:00N 60°24' E 005°12'1110.7 260 / 14985.2 6.4 0.9 6.1
2015-Mar-29 11:00N 60°30' E 004°54'1212.4 270 / 12985.7 5.3 0.7 6.1
2015-Mar-29 10:00N 60°42' E 004°48'3010.0 230 / 16985.8 4.5 1.1 6.0
2015-Mar-29 07:00N 61°12' E 004°42'1212.3 250 / 17985.1 5.8 2.1 5.5
2015-Mar-29 06:00N 61°24' E 004°48'7 6.7 240 / 17984.4 5.9 2.2 5.4
2015-Mar-29 05:00N 61°30' E 004°54'3110.2 220 / 21984.3 5.1 2.2 5.1
2015-Mar-29 02:00N 62°00' E 005°06'1212.0 200 / 27981.1 5.7 2.3 5.4
2015-Mar-29 01:00N 62°12' E 005°06'8 8.4 180 / 27978.4 7.3 0.6 5.5
2015-Mar-29 00:00N 62°12' E 005°24'3712.2 170 / 14979.1 8.8-0.5 5.3
2015-Mar-28 21:00N 62°36' E 006°24'1313.2 140 / 12984.0 6.0-1.0 5.4
2015-Mar-28 20:00N 62°48' E 006°36'3310.9 200 / 12985.9 4.9-3.7 5.5
2015-Mar-28 17:00N 63°06' E 007°36'1212.4 130 / 16992.3 8.1-6.0 5.6
2015-Mar-28 16:00N 63°12' E 008°00'2512.3 140 / 10994.9 8.6-7.7 5.5
2015-Mar-28 14:00N 63°24' E 008°48'1812.3 150 / 10999.5 9.7-6.1 5.6
2015-Mar-28 12:32N 63°37' E 009°16'11 7.4
2015-Mar-28 11:00N 63°48' E 009°24'2612.9 180 / 121004.0 6.8-2.6 5.9
2015-Mar-28 09:00N 64°06' E 010°06'1313.1 230 / 141005.5 6.1-2.2 5.1
2015-Mar-28 08:00N 64°18' E 010°18'7 6.5 230 / 171005.7 5.4-1.3 5.0
2015-Mar-28 07:00N 64°24' E 010°24'3313.6 220 / 251005.2 6.1-1.6 5.0
2015-Mar-28 04:33N 64°50' E 011°11'1211.6
2015-Mar-28 03:33N 64°58' E 011°32'1311.8
2015-Mar-28 02:27N 65°08' E 011°50'4 8.8
2015-Mar-28 02:00N 65°12' E 011°54'6 6.0 200 / 211005.8 4.0 0.6 4.6
2015-Mar-28 01:00N 65°18' E 011°54'3812.7 190 / 211006.3 3.7 1.0 4.1
2015-Mar-27 22:00N 65°54' E 012°24'8 7.7 160 / 141006.2 2.7-2.1 4.0
2015-Mar-27 21:00N 66°00' E 012°36'1414.0 130 / 161006.5 1.5-3.6 4.2
2015-Mar-27 20:00N 66°12' E 012°54'1021.7 150 / 141007.1 1.8-3.3 4.5
2015-Mar-27 19:33N 66°22' E 012°58'3 5.0
2015-Mar-27 19:00N 66°24' E 012°54'3213.0 150 / 81007.0 1.8-3.2 4.1
2015-Mar-27 16:32N 66°54' E 013°25'1111.2
2015-Mar-27 15:33N 67°01' E 013°45'1211.7
2015-Mar-27 14:33N 67°11' E 014°04'4 6.3
2015-Mar-27 14:00N 67°12' E 014°12'714.2 110 / 161007.7 3.2-5.5 3.7
2015-Mar-27 13:32N 67°17' E 014°22'610.4
2015-Mar-27 13:00N 67°12' E 014°18'611.9 120 / 141008.2 3.0-6.9 4.0
2015-Mar-27 12:32N 67°17' E 014°22'0 0.0
2015-Mar-27 11:31N 67°17' E 014°22'610.4
2015-Mar-27 11:00N 67°12' E 014°18'611.9 110 / 171008.6 2.5-7.2 4.0
2015-Mar-27 10:31N 67°17' E 014°22'0 0.0
2015-Mar-27 09:31N 67°17' E 014°22'610.4
2015-Mar-27 09:00N 67°12' E 014°18'611.8 130 / 141008.7 2.3-7.3 3.9
2015-Mar-27 08:31N 67°17' E 014°22'610.4
2015-Mar-27 08:00N 67°12' E 014°18'611.8 130 / 101008.6 2.2-7.3 3.8
2015-Mar-27 07:31N 67°17' E 014°22'0 0.0
2015-Mar-27 06:31N 67°17' E 014°22'610.4
2015-Mar-27 06:00N 67°12' E 014°18'611.8 140 / 121008.6 1.5-7.5 3.7
2015-Mar-27 05:31N 67°17' E 014°22'610.4
2015-Mar-27 05:00N 67°12' E 014°18'611.8 150 / 101009.0 1.6-7.2 3.7
2015-Mar-27 04:31N 67°17' E 014°22'610.5
2015-Mar-27 04:00N 67°12' E 014°18'611.8 160 / 141008.6 0.8-8.1 3.6
2015-Mar-27 03:31N 67°17' E 014°22'610.5
2015-Mar-27 03:00N 67°12' E 014°18'611.8 140 / 171009.2 0.6-6.9 3.6
2015-Mar-27 02:31N 67°17' E 014°22'0 0.0
2015-Mar-27 01:31N 67°17' E 014°22'0 0.0
2015-Mar-27 00:31N 67°17' E 014°22'610.5
2015-Mar-27 00:00N 67°12' E 014°18'611.7 140 / 171011.0 0.8-7.4 3.7
2015-Mar-26 23:31N 67°17' E 014°22'610.5
2015-Mar-26 23:00N 67°12' E 014°18'611.7 120 / 141011.1 0.9-7.2 3.8
2015-Mar-26 22:31N 67°17' E 014°22'610.5
2015-Mar-26 22:00N 67°12' E 014°18'611.7 140 / 161011.3 1.3-8.7 3.8
2015-Mar-26 21:31N 67°17' E 014°22'610.5
2015-Mar-26 21:00N 67°12' E 014°18'611.7 130 / 101011.7 2.7-8.5 3.7
2015-Mar-26 20:31N 67°17' E 014°22'610.5
2015-Mar-26 20:00N 67°12' E 014°18'611.7 140 / 101012.7 2.1-9.5 3.7
2015-Mar-26 19:31N 67°17' E 014°22'610.5
2015-Mar-26 19:00N 67°12' E 014°18'611.7 120 / 191013.0 0.6-10.2 3.6
2015-Mar-26 18:31N 67°17' E 014°22'610.5
2015-Mar-26 18:00N 67°12' E 014°18'611.7 120 / 191013.3 0.9-9.4 3.7
2015-Mar-26 17:31N 67°17' E 014°22'610.6
2015-Mar-26 17:00N 67°12' E 014°18'611.7 120 / 211014.2 0.9-9.8 3.7
2015-Mar-26 16:31N 67°17' E 014°22'610.6
2015-Mar-26 16:00N 67°12' E 014°18'611.7 110 / 191014.2 1.1-10.6 3.7
2015-Mar-26 15:31N 67°17' E 014°22'610.6
2015-Mar-26 15:00N 67°12' E 014°18'611.6 110 / 211014.7 1.5-11.8 3.8
2015-Mar-26 14:31N 67°17' E 014°22'610.6
2015-Mar-26 14:00N 67°12' E 014°18'611.6 110 / 191015.8 1.1-11.9 3.9
2015-Mar-26 13:31N 67°17' E 014°22'610.6
2015-Mar-26 13:00N 67°12' E 014°18'611.6 110 / 171016.2 1.3-12.3 3.8
2015-Mar-26 12:31N 67°17' E 014°22'610.6
2015-Mar-26 12:00N 67°12' E 014°18'611.6 110 / 171017.0 0.8-13.1 3.7
2015-Mar-26 11:31N 67°17' E 014°22'610.6
2015-Mar-26 11:00N 67°12' E 014°18'611.6 110 / 191016.8 1.0-13.4 3.7
2015-Mar-26 10:31N 67°17' E 014°22'610.6
2015-Mar-26 10:00N 67°12' E 014°18'611.6 110 / 191017.2 0.8-13.1 3.8
2015-Mar-26 09:31N 67°17' E 014°22'610.6
2015-Mar-26 09:00N 67°12' E 014°18'611.6 110 / 171017.7 0.6-13.1 3.7
2015-Mar-26 08:31N 67°17' E 014°22'610.6
2015-Mar-26 08:00N 67°12' E 014°18'611.6 100 / 171018.2 -0.0-13.1 3.7
2015-Mar-26 07:31N 67°17' E 014°22'610.6
2015-Mar-26 07:00N 67°12' E 014°18'611.7 110 / 171018.5 -0.8-12.2 3.6
2015-Mar-26 06:31N 67°17' E 014°22'8 8.2
2015-Mar-26 05:33N 67°25' E 014°28'611.1
2015-Mar-26 05:00N 67°30' E 014°18'612.6 140 / 211018.4 0.2-10.9 3.8
2015-Mar-26 04:32N 67°36' E 014°19'3 4.8
2015-Mar-26 04:00N 67°36' E 014°12'1223.3 140 / 191018.6 0.1-11.3 3.6
2015-Mar-26 03:29N 67°47' E 014°20'2 3.2
2015-Mar-26 03:00N 67°48' E 014°24'1515.0 140 / 141019.4 0.7-15.7 3.7
2015-Mar-26 02:00N 68°00' E 014°48'4511.2 150 / 101020.2 0.6-13.0 3.4
2015-Mar-25 22:00N 68°30' E 016°18'2110.5 200 / 121021.2 0.7-4.3 2.8
2015-Mar-25 20:00N 68°48' E 016°48'1514.8 230 / 191019.7 1.2-2.2 3.2
2015-Mar-25 19:00N 69°00' E 017°12'1010.5 260 / 171019.1 2.2-1.7 3.0
2015-Mar-25 18:00N 69°06' E 017°36'29 9.8 300 / 191018.2 3.2-4.1 2.6
2015-Mar-25 15:00N 69°30' E 018°24'1010.3 270 / 141016.1 0.3-2.2 2.6
2015-Mar-25 14:00N 69°36' E 018°48'4 9.9 1015.7 0.6-2.1 2.1
2015-Mar-25 13:33N 69°39' E 018°57'0 0.0
2015-Mar-25 12:31N 69°39' E 018°57'3 5.9
2015-Mar-25 12:00N 69°36' E 018°54'3 7.0 230 / 41014.7 1.5-3.5 2.9
2015-Mar-25 11:34N 69°39' E 018°57'3 5.4
2015-Mar-25 11:00N 69°36' E 018°54'3 6.3 220 / 121014.1 -0.0-2.5 3.0
2015-Mar-25 10:30N 69°39' E 018°57'3 5.9
2015-Mar-25 10:00N 69°36' E 018°54'3 7.0 220 / 121013.7 -0.4-3.0 2.7
2015-Mar-25 09:33N 69°39' E 018°57'3 5.4
2015-Mar-25 09:00N 69°36' E 018°54'3 5.7 220 / 81013.0 -0.0-3.0 2.6
2015-Mar-25 08:27N 69°39' E 018°57'3 6.6
2015-Mar-25 08:00N 69°36' E 018°54'3 4.1 220 / 101012.5 0.2-2.7 2.6
2015-Mar-25 07:15N 69°39' E 018°57'311.5
2015-Mar-25 07:00N 69°36' E 018°54'3 7.0 220 / 101012.0 -1.0-3.1 2.6
2015-Mar-25 06:33N 69°39' E 018°57'3 5.4
2015-Mar-25 06:00N 69°36' E 018°54'3 7.0 220 / 171011.8 -1.8-3.7 2.7
2015-Mar-25 05:33N 69°39' E 018°57'3 5.4
2015-Mar-25 05:00N 69°36' E 018°54'3 7.0 220 / 191012.1 -2.6-4.1 2.5
2015-Mar-25 04:33N 69°39' E 018°57'0 0.0
2015-Mar-25 03:30N 69°39' E 018°57'3 5.9
2015-Mar-25 03:00N 69°36' E 018°54'3 7.0 220 / 161013.2 -2.6-5.6 2.4
2015-Mar-25 02:33N 69°39' E 018°57'3 5.4
2015-Mar-25 02:00N 69°36' E 018°54'3 6.2 210 / 141014.2 -1.4-7.4 2.5
2015-Mar-25 01:30N 69°39' E 018°57'3 6.0
2015-Mar-25 01:00N 69°36' E 018°54'3 6.3 220 / 121015.4 -1.8-8.4 2.7
2015-Mar-25 00:30N 69°39' E 018°57'3 5.9
2015-Mar-25 00:00N 69°36' E 018°54'3 6.2 220 / 121015.7 -1.8-7.6 2.7
2015-Mar-24 23:30N 69°39' E 018°57'3 6.0
2015-Mar-24 23:00N 69°36' E 018°54'3 6.9 220 / 101016.1 -2.0-6.5 2.7
2015-Mar-24 22:33N 69°39' E 018°57'3 5.4
2015-Mar-24 22:00N 69°36' E 018°54'3 6.9 240 / 121016.2 -2.7-5.5 2.8
2015-Mar-24 21:33N 69°39' E 018°57'3 5.4
2015-Mar-24 21:00N 69°36' E 018°54'3 6.2 240 / 61016.0 -1.8-7.0 2.8
2015-Mar-24 20:30N 69°39' E 018°57'0 0.0
2015-Mar-24 19:30N 69°39' E 018°57'0 0.0
2015-Mar-24 18:33N 69°39' E 018°57'0 0.0
2015-Mar-24 17:30N 69°39' E 018°57'0 0.0
2015-Mar-24 16:33N 69°39' E 018°57'3 5.4
2015-Mar-24 16:00N 69°36' E 018°54'3 5.6 280 / 21013.2 -1.5-6.5 2.6
2015-Mar-24 15:27N 69°39' E 018°57'3 6.7
2015-Mar-24 15:00N 69°36' E 018°54'3 4.7 270 / 41012.8 -1.0-8.1 2.6
2015-Mar-24 14:21N 69°39' E 018°57'3 8.5
2015-Mar-24 14:00N 69°36' E 018°54'3 6.9 230 / 61012.2 -0.9-8.8 2.8
2015-Mar-24 13:33N 69°39' E 018°57'3 5.5
2015-Mar-24 13:00N 69°36' E 018°54'3 6.9 220 / 101011.6 -1.1-10.1 2.7
2015-Mar-24 12:33N 69°39' E 018°57'0 0.0
2015-Mar-24 11:33N 69°39' E 018°57'3 5.5
2015-Mar-24 11:00N 69°36' E 018°54'3 6.9 210 / 61010.6 -1.6-11.5 2.8
2015-Mar-24 10:33N 69°39' E 018°57'3 5.5
2015-Mar-24 10:00N 69°36' E 018°54'3 6.2 190 / 41010.2 -1.9-12.2 2.7
2015-Mar-24 09:30N 69°39' E 018°57'3 6.0
2015-Mar-24 09:00N 69°36' E 018°54'3 6.8 100 1008.9 -2.0-12.9 2.7
2015-Mar-24 08:33N 69°39' E 018°57'3 5.5
2015-Mar-24 08:00N 69°36' E 018°54'3 5.6 080 / 41008.0 -3.2-13.6 2.7
2015-Mar-24 07:27N 69°39' E 018°57'3 6.7
2015-Mar-24 07:00N 69°36' E 018°54'3 6.8 060 / 41006.7 -3.6-14.1 2.5
2015-Mar-24 06:33N 69°39' E 018°57'3 5.5
2015-Mar-24 06:00N 69°36' E 018°54'3 4.4 130 / 41005.7 -3.8-12.6 2.6
2015-Mar-24 05:18N 69°39' E 018°57'310.0
2015-Mar-24 05:00N 69°36' E 018°54'3 6.1 110 / 41004.6 -4.5-12.5 2.6
2015-Mar-24 04:30N 69°39' E 018°57'3 6.1
2015-Mar-24 04:00N 69°36' E 018°54'3 6.8 080 / 121002.9 -3.6-11.1 2.5
2015-Mar-24 03:33N 69°39' E 018°57'3 5.5
2015-Mar-24 03:00N 69°36' E 018°54'3 6.1 100 / 41001.3 -5.5-12.9 2.5
2015-Mar-24 02:30N 69°39' E 018°57'3 6.1
2015-Mar-24 02:00N 69°36' E 018°54'3 6.1 090 / 21000.0 -4.3-11.1 2.5
2015-Mar-24 01:30N 69°39' E 018°57'3 6.1
2015-Mar-24 01:00N 69°36' E 018°54'3 6.8 070 / 8998.6 -4.1-10.5 2.5
2015-Mar-24 00:33N 69°39' E 018°57'3 5.5
2015-Mar-24 00:00N 69°36' E 018°54'3 6.8 060 / 12997.0 -3.6-9.3 2.6
2015-Mar-23 23:33N 69°39' E 018°57'3 5.5
2015-Mar-23 23:00N 69°36' E 018°54'3 5.5 060 / 16995.5 -3.7-9.7 2.7
2015-Mar-23 22:27N 69°39' E 018°57'3 6.8
2015-Mar-23 22:00N 69°36' E 018°54'3 5.3 060 / 16994.5 -3.4-9.1 2.8
2015-Mar-23 21:25N 69°39' E 018°57'3 7.2
2015-Mar-23 21:00N 69°36' E 018°54'3 6.4 050 / 16993.6 -3.3-8.7 2.7
2015-Mar-23 20:31N 69°39' E 018°57'3 5.8
2015-Mar-23 20:00N 69°36' E 018°54'3 6.4 060 / 14992.6 -3.0-8.5 2.8
2015-Mar-23 19:31N 69°39' E 018°57'3 5.8
2015-Mar-23 19:00N 69°36' E 018°54'3 4.9 060 / 16991.8 -2.5-7.3 2.8
2015-Mar-23 18:22N 69°39' E 018°57'3 8.2
2015-Mar-23 18:00N 69°36' E 018°54'3 6.4 060 / 16991.0 -1.9-6.2 2.8
2015-Mar-23 17:31N 69°39' E 018°57'3 5.8
2015-Mar-23 17:00N 69°36' E 018°54'3 6.4 030 / 12990.3 -1.6-6.1 2.7
2015-Mar-23 16:31N 69°39' E 018°57'0 0.0
2015-Mar-23 15:33N 69°39' E 018°57'3 5.5
2015-Mar-23 15:00N 69°36' E 018°54'4 4.7 040 / 17989.5 -1.0-3.4 2.7
2015-Mar-23 14:11N 69°39' E 018°58'419.5
2015-Mar-23 14:00N 69°36' E 018°54'4 6.8 040 / 16989.3 -1.1-3.2 2.8
2015-Mar-23 13:26N 69°39' E 018°58'4 8.5
2015-Mar-23 13:00N 69°36' E 018°54'4 8.3 040 / 16988.9 -0.2-2.9 2.8
2015-Mar-23 12:32N 69°39' E 018°58'4 7.0
2015-Mar-23 12:00N 69°36' E 018°54'9 8.7 070 / 12988.9 0.6-2.7 2.5
2015-Mar-23 11:00N 69°42' E 019°12'1212.0 050 / 14989.2 -0.0-2.7 2.8
2015-Mar-23 10:00N 69°48' E 019°42'2512.4 060 / 14989.5 -0.0-3.5 2.9
2015-Mar-23 08:00N 70°12' E 020°00'24 8.0 070 / 14989.5 -0.3-4.3 3.9
2015-Mar-23 05:00N 70°36' E 019°54'6 6.0 090 / 17990.0 -1.0-4.7 5.1
2015-Mar-23 04:00N 70°42' E 019°54'1212.0 080 / 17989.9 -0.7-4.9 5.0
2015-Mar-23 03:00N 70°54' E 019°54'6 6.0 090 / 19990.1 -0.4-5.1 5.1
2015-Mar-23 02:00N 71°00' E 019°54'6 6.3 100 / 17990.7 -0.6-4.9 5.1
2015-Mar-23 01:00N 71°06' E 019°48'6 6.0 090 / 19990.8 -0.5-4.4 5.2
2015-Mar-23 00:00N 71°12' E 019°48'6 6.3 090 / 23991.0 -0.3-4.8 5.3
2015-Mar-22 23:00N 71°18' E 019°42'1212.0 100 / 23991.4 -0.4-4.9 5.5
2015-Mar-22 22:00N 71°30' E 019°42'0 0.0 110 / 25992.0 -0.2-5.3 5.4
2015-Mar-22 21:00N 71°30' E 019°42'1212.0 100 / 21992.1 -0.3-5.2 5.6
2015-Mar-22 20:00N 71°42' E 019°42'6 6.3 110 / 25992.5 -0.7-5.2 5.5
2015-Mar-22 19:00N 71°48' E 019°48'6 6.0 110 / 27993.5 -0.9-6.1 5.4
2015-Mar-22 18:00N 71°54' E 019°48'6 6.3 120 / 29993.6 -0.7-6.1 5.3
2015-Mar-22 17:00N 72°00' E 019°42'2 1.9 120 / 27994.5 -0.0-5.5 5.4
2015-Mar-22 16:00N 72°00' E 019°36'6 6.0 110 / 29994.5 -0.0-5.9 5.3
2015-Mar-22 15:00N 72°06' E 019°36'6 6.0 120 / 29995.2 -0.0-7.4 5.3
2015-Mar-22 14:00N 72°12' E 019°36'1212.1 120 / 29995.8 0.1-6.3 5.5
2015-Mar-22 13:00N 72°24' E 019°30'6 6.0 130 / 29996.8 0.6-8.2 5.1
2015-Mar-22 12:00N 72°30' E 019°30'0 0.0 130 / 25998.0 0.6-7.5 5.4
2015-Mar-22 11:00N 72°30' E 019°30'2 1.8 140 / 27998.6 0.7-8.2 5.0
2015-Mar-22 10:00N 72°30' E 019°24'1212.1 140 / 27998.8 0.5-8.3 5.1
2015-Mar-22 09:00N 72°42' E 019°30'6 3.1 150 / 29999.5 0.2-7.2 4.9
2015-Mar-22 07:00N 72°48' E 019°24'0 0.0 140 / 331000.5 -1.3-3.8 4.6
2015-Mar-22 06:00N 72°48' E 019°24'6 6.3 150 / 351001.3 -1.9-4.2 4.7
2015-Mar-22 05:00N 72°54' E 019°30'6 6.3 160 / 291002.6 -0.6-4.8 4.8
2015-Mar-22 04:00N 73°00' E 019°24'0 0.0 150 / 271004.2 -0.5-7.4 4.8
2015-Mar-22 03:00N 73°00' E 019°24'6 6.0 160 / 271005.1 -0.4-6.6 4.8
2015-Mar-22 02:00N 73°06' E 019°24'6 6.0 170 / 251006.5 -2.0-6.4 4.8
2015-Mar-22 01:00N 73°12' E 019°24'6 6.2 170 / 271008.1 -1.8-6.7 4.7
2015-Mar-22 00:00N 73°18' E 019°18'1212.1 170 / 25 -2.2-7.5 4.8
2015-Mar-21 23:00N 73°30' E 019°12'2 1.7 160 / 251010.2 -2.3-8.2 4.7
2015-Mar-21 22:00N 73°30' E 019°18'0 0.0 160 / 231011.8 -2.7-9.4 4.6
2015-Mar-21 21:00N 73°30' E 019°18'6 6.0 160 / 211012.6 -3.1-10.4 4.6
2015-Mar-21 20:00N 73°36' E 019°18'1212.1 170 / 191014.0 -3.7-10.8 4.8
2015-Mar-21 19:00N 73°48' E 019°12'62 8.8 170 / 171015.1 -4.4-10.4 4.1
2015-Mar-21 12:00N 74°48' E 018°18'1212.1 170 / 61020.2 -8.4-14.2 2.5
2015-Mar-21 11:00N 75°00' E 018°12'6 6.0 180 / 61020.6 -9.5-15.6-2.2
2015-Mar-21 10:00N 75°06' E 018°12'2 1.5 150 / 41020.7 -9.2-16.2-1.0
2015-Mar-21 09:00N 75°06' E 018°18'2 1.5 080 / 21021.5 -9.8-16.0-1.1
2015-Mar-21 08:00N 75°06' E 018°24'2512.6 090 / 41021.5 -16.3-1.7
2015-Mar-21 06:00N 74°42' E 017°54'9 8.7 060 / 101021.3 -9.1-14.7 4.7
2015-Mar-21 05:00N 74°36' E 017°30'1413.6 070 / 121021.7 -8.1-12.6 2.1
2015-Mar-21 04:00N 74°24' E 017°06'1212.1 060 / 161021.5 -7.3-11.8 4.6
2015-Mar-21 03:00N 74°12' E 017°00'6 6.2 040 / 121021.2 -6.4-11.6 4.7
2015-Mar-21 02:00N 74°06' E 016°54'1212.1 040 / 141021.6 -6.2-11.8 5.3
2015-Mar-21 01:00N 73°54' E 016°48'1212.5 050 / 141021.6 -6.3-12.3 4.6
2015-Mar-21 00:00N 73°42' E 016°36'8 7.9 040 / 121022.1 -6.8-12.4 5.3
2015-Mar-20 23:00N 73°36' E 016°18'7 6.9 050 / 121022.2 -6.6-11.3 5.6
2015-Mar-20 22:00N 73°30' E 016°06'1313.1 040 / 121022.7 -6.6-11.7 5.4
2015-Mar-20 21:00N 73°18' E 015°48'7 6.9 040 / 161022.8 -6.3-14.6 5.4
2015-Mar-20 20:00N 73°12' E 015°36'15 7.4 030 / 191022.7 -6.1-13.5 5.6
2015-Mar-20 18:00N 73°00' E 015°06'8 8.0 040 / 211021.7 -5.1-12.0 5.8
2015-Mar-20 17:00N 72°54' E 014°48'1313.1 050 / 191021.7 -5.3-10.5 6.1
2015-Mar-20 16:00N 72°42' E 014°30'7 7.0 070 / 211021.0 -4.6-10.3 6.0
2015-Mar-20 15:00N 72°36' E 014°18'1313.2 050 / 121020.5 -5.0-7.0 5.3
2015-Mar-20 14:00N 72°24' E 014°00'15 7.5 020 / 141020.0 -4.7-8.0 5.1
2015-Mar-20 12:00N 72°12' E 013°30'7 7.0 030 / 251019.6 -3.6-9.1 5.6
2015-Mar-20 11:00N 72°06' E 013°18'6 5.5 020 / 171020.2 -4.0-7.3 5.4
2015-Mar-20 10:00N 72°06' E 013°00'1312.6 050 / 171020.5 -3.2-9.4 5.6
2015-Mar-20 09:00N 71°54' E 012°48'7 7.1 030 / 121020.7 -3.6-8.9 5.4
2015-Mar-20 08:00N 71°48' E 012°36'8 8.2 350 / 141020.8 -4.2-8.4 4.1
2015-Mar-20 07:00N 71°42' E 012°18'7 7.1 040 / 101020.9 -3.8-8.2 4.5
2015-Mar-20 06:00N 71°36' E 012°06'8 8.3 040 / 211020.5 -3.2-8.2 4.5
2015-Mar-20 05:00N 71°30' E 011°48'8 8.3 030 / 231020.6 -3.7-7.4 4.3
2015-Mar-20 04:00N 71°24' E 011°30'   340 / 141021.0 -3.2-7.6 5.6

Dump ship's entire track history